Carthage, North Carolina
Current Conditions -  °F | °C
As of 10:15 PM on Tuesday 25 Nov 2014 (Local Time) from KSOP Reporting Station
Overcast Overcast  
Wind Chill:   Ceiling: 1500
Heat Index:   Visibility: 9mi
Dew Point: -19°   Wind: 5mph
Humidity: 12%   Direction: 40°NE
Pressure: 30.08"   Gusts: NA
Location:  35.35°N, 79.42°W
Report Text: KSOP 260315Z AUTO 04004KT 9SM BKN015 OVC026 09/M19 A3008 RMK AO1 P0003
Loading
Personal Weather Stations






























Interactive Weather Map New forecast layout! Learn more

10-Day Weather Forecast

Advertisements
Track Severe Weather on mobile